Sunol, California
Current Conditions -  °F | °C
As of 6:53 PM on Saturday 24 Jan 2015 (Local Time) from KLVK Reporting Station
Clear Clear  
Wind Chill: 55°   Ceiling: Unl
Heat Index: 55°   Visibility: 10mi
Dew Point: 40°   Wind: 5mph
Humidity: 57%   Direction: 110°ESE
Pressure: 30.11"   Gusts: NA
Location:  37.6°N, 121.9°W
Report Text: KLVK 250253Z 11004KT 10SM CLR 13/04 A3011 RMK AO2 SLP196 T01280044 55002
Loading
Personal Weather Stations






























Interactive Weather Map New forecast layout! Learn more

10-Day Weather Forecast

Advertisements
Track Severe Weather on mobile